Euskara    
Meteorología y climatología de Navarra
Datos de la estación - Meteo Navarra

Estación de Urbasa GN

Altitud 886 m.


Datos desde el 23/02/2021 hasta el 24/02/2021 en horario solar
Los datos son PROVISIONALES

Anterior Página 1 de 1 Siguiente Descargar: Formato para Excel 2000 o superior   Formato csv   Formato para OpenOffice Calc
Fecha Temperatura Humedad relativa Radiación global Insolación Precipitación Vel. viento 10 m Vel. viento 10 m Dir. viento 10 m
°C % W/m² s l/m² m/s km/h °
23/02/2021 0:00 1.7 99 0.0 0 0.1 1.5 5.3 126
23/02/2021 0:10 1.6 98 0.0 0 0.1 1.9 6.9 141
23/02/2021 0:20 1.7 98 0.0 0 0.1 1.5 5.4 139
23/02/2021 0:30 1.8 99 0.0 0 0.2 1.2 4.3 123
23/02/2021 0:40 1.4 98 0.0 0 0.0 1.2 4.3 128
23/02/2021 0:50 1.5 99 0.0 0 0.1 1.3 4.6 160
23/02/2021 1:00 1.5 98 0.0 0 0.1 1.0 3.5 163
23/02/2021 1:10 1.5 99 0.0 0 0.1 0.8 3.0 150
23/02/2021 1:20 1.8 99 0.0 0 0.1 1.0 3.6 157
23/02/2021 1:30 1.8 99 0.0 0 0.0 1.3 4.8 159
23/02/2021 1:40 2.6 99 0.0 0 0.2 1.8 6.6 137
23/02/2021 1:50 2.6 99 0.0 0 0.1 2.2 8.0 149
23/02/2021 2:00 2.9 99 0.0 0 0.3 2.7 9.8 141
23/02/2021 2:10 2.9 99 0.0 0 0.2 2.4 8.7 133
23/02/2021 2:20 3.0 99 0.0 0 0.3 2.7 9.7 144
23/02/2021 2:30 3.1 99 0.0 0 0.3 2.6 9.3 158
23/02/2021 2:40 3.3 99 0.0 0 0.3 3.1 11.2 156
23/02/2021 2:50 3.4 99 0.0 0 0.3 2.9 10.3 155
23/02/2021 3:00 3.3 98 0.0 0 0.2 2.8 10.2 152
23/02/2021 3:10 3.3 98 0.0 0 0.3 2.5 8.9 134
23/02/2021 3:20 3.3 98 0.0 0 0.2 3.1 11.2 145
23/02/2021 3:30 3.4 98 0.0 0 0.4 3.7 13.4 150
23/02/2021 3:40 3.4 98 0.0 0 0.2 4.3 15.3 156
23/02/2021 3:50 3.4 98 0.0 0 0.2 3.3 12.0 158
23/02/2021 4:00 3.4 98 0.0 0 0.0 3.5 12.7 148
23/02/2021 4:10 3.4 98 0.0 0 0.2 3.1 11.2 151
23/02/2021 4:20 3.4 98 0.0 0 0.2 3.4 12.2 153
23/02/2021 4:30 3.4 98 0.0 0 0.2 3.2 11.6 163
23/02/2021 4:40 3.3 98 0.0 0 0.1 3.3 11.8 157
23/02/2021 4:50 3.3 98 0.0 0 0.2 3.2 11.5 156
23/02/2021 5:00 3.4 98 0.0 0 0.1 3.4 12.3 150
23/02/2021 5:10 3.3 98 0.0 0 0.2 3.1 11.2 147
23/02/2021 5:20 3.3 98 0.0 0 0.1 3.1 11.1 145
23/02/2021 5:30 3.2 98 0.0 0 0.1 3.6 13.1 152
23/02/2021 5:40 3.3 98 0.0 0 0.1 3.6 12.9 160
23/02/2021 5:50 3.1 98 0.0 0 0.0 3.4 12.3 155
23/02/2021 6:00 3.1 98 0.0 0 0.0 3.4 12.2 140
23/02/2021 6:10 3.1 98 0.0 0 0.0 4.0 14.3 145
23/02/2021 6:20 3.1 98 0.0 0 0.0 4.2 15.1 146
23/02/2021 6:30 2.9 98 0.0 0 0.0 4.0 14.3 141
23/02/2021 6:40 2.8 98 0.0 0 0.0 3.5 12.6 146
23/02/2021 6:50 2.8 98 0.0 0 0.0 3.8 13.8 145
23/02/2021 7:00 2.8 98 0.0 0 0.0 3.5 12.7 155
23/02/2021 7:10 2.8 98 0.0 0 0.0 3.7 13.4 152
23/02/2021 7:20 2.8 98 0.0 0 0.0 3.6 12.8 150
23/02/2021 7:30 2.9 98 2.4 0 0.0 4.2 15.2 148
23/02/2021 7:40 2.9 98 18.6 0 0.0 4.3 15.4 161
23/02/2021 7:50 2.9 98 27.9 0 0.0 4.5 16.2 156
23/02/2021 8:00 2.9 98 42.1 0 0.0 4.1 14.8 151
23/02/2021 8:10 3.0 98 62.5 0 0.0 4.4 15.7 149
23/02/2021 8:20 3.1 98 83.8 0 0.0 4.5 16.1 154
23/02/2021 8:30 3.2 99 106.4 46 0.0 5.0 18.1 153
23/02/2021 8:40 3.2 98 65.6 0 0.0 5.5 19.8 157
23/02/2021 8:50 3.2 98 58.0 0 0.0 5.5 19.9 162
23/02/2021 9:00 3.1 98 54.2 0 0.0 4.8 17.2 162
23/02/2021 9:10 3.1 98 57.2 0 0.0 5.0 17.9 155
23/02/2021 9:20 3.1 98 68.2 0 0.0 5.0 17.9 157
23/02/2021 9:30 3.1 98 81.9 0 0.0 5.0 17.9 153
23/02/2021 9:40 3.1 98 83.8 0 0.0 4.3 15.4 151
23/02/2021 9:50 3.1 98 106.3 0 0.0 3.9 14.0 147
23/02/2021 10:00 3.2 98 98.0 0 0.0 4.1 14.7 149
23/02/2021 10:10 3.4 98 80.9 0 0.0 4.4 15.7 149
23/02/2021 10:20 3.5 98 87.2 0 0.0 4.0 14.3 158
23/02/2021 10:30 3.6 98 83.9 0 0.0 4.6 16.6 143
23/02/2021 10:40 3.9 98 82.6 0 0.0 3.8 13.6 144
23/02/2021 10:50 3.9 98 94.0 0 0.0 4.0 14.5 142
23/02/2021 11:00 4.0 98 99.4 0 0.0 4.8 17.1 141
23/02/2021 11:10 4.2 98 124.9 0 0.0 4.0 14.2 142
23/02/2021 11:20 4.5 97 151.8 0 0.0 4.3 15.4 142
23/02/2021 11:30 4.9 96 134.2 0 0.0 4.8 17.4 145
23/02/2021 11:40 5.1 95 218.1 18 0.0 4.2 15.0 150
23/02/2021 11:50 5.4 91 311.7 146 0.0 4.6 16.7 148
23/02/2021 12:00 5.9 86 303.7 94 0.0 4.9 17.6 152
23/02/2021 12:10 6.2 85 364.4 306 0.0 3.8 13.7 142
23/02/2021 12:20 6.5 83 432.9 326 0.0 5.1 18.5 139
23/02/2021 12:30 6.8 80 543.9 414 0.0 5.4 19.5 146
23/02/2021 12:40 6.9 80 415.0 306 0.0 5.2 18.8 146
23/02/2021 12:50 7.0 79 553.7 452 0.0 6.0 21.6 148
23/02/2021 13:00 7.5 77 632.7 512 0.0 5.1 18.4 151
23/02/2021 13:10 7.7 75 471.8 344 0.0 5.8 20.8 154
23/02/2021 13:20 7.8 74 512.0 438 0.0 6.1 21.9 156
23/02/2021 13:30 8.0 73 612.8 562 0.0 6.4 23.0 161
23/02/2021 13:40 8.4 71 627.6 578 0.0 6.2 22.2 163
23/02/2021 13:50 8.6 71 604.2 564 0.0 6.0 21.7 157
23/02/2021 14:00 8.8 70 614.7 600 0.0 6.1 21.8 154
23/02/2021 14:10 8.9 67 593.6 600 0.0 5.9 21.2 153
23/02/2021 14:20 9.1 68 577.1 600 0.0 5.5 19.7 146
23/02/2021 14:30 9.3 67 557.8 600 0.0 6.3 22.5 142
23/02/2021 14:40 9.3 66 534.5 600 0.0 6.2 22.4 147
23/02/2021 14:50 9.4 65 508.1 600 0.0 6.4 23.1 150
23/02/2021 15:00 9.6 64 485.1 600 0.0 5.9 21.1 146
23/02/2021 15:10 9.7 63 461.9 600 0.0 5.9 21.2 144
23/02/2021 15:20 9.6 62 436.2 600 0.0 6.4 23.0 149
23/02/2021 15:30 9.6 62 408.6 600 0.0 5.2 18.7 152
23/02/2021 15:40 9.7 63 380.4 600 0.0 4.7 17.0 143
23/02/2021 15:50 9.6 64 350.9 600 0.0 5.2 18.6 156
23/02/2021 16:00 9.5 67 321.9 600 0.0 6.1 22.0 144
23/02/2021 16:10 9.5 69 291.0 600 0.0 5.5 19.8 148
23/02/2021 16:20 9.4 69 258.9 600 0.0 5.4 19.6 146
23/02/2021 16:30 9.3 71 228.7 600 0.0 5.1 18.4 153
23/02/2021 16:40 9.4 71 195.0 600 0.0 5.8 21.0 144
23/02/2021 16:50 9.1 71 144.9 544 0.0 5.7 20.6 148
23/02/2021 17:00 9.0 71 127.6 580 0.0 4.6 16.6 145
23/02/2021 17:10 8.9 72 101.7 582 0.0 3.7 13.4 149
23/02/2021 17:20 8.7 73 73.0 590 0.0 4.3 15.5 154
23/02/2021 17:30 8.5 74 40.7 524 0.0 3.8 13.7 147
23/02/2021 17:40 8.3 75 12.7 0 0.0 4.7 16.8 140
23/02/2021 17:50 8.2 76 0.0 0 0.0 4.8 17.3 144
23/02/2021 18:00 8.0 78 0.0 0 0.0 4.1 14.7 140
23/02/2021 18:10 7.9 81 0.0 0 0.0 4.5 16.0 145
23/02/2021 18:20 8.1 84 0.0 0 0.0 4.7 17.0 142
23/02/2021 18:30 8.0 86 0.0 0 0.0 3.6 13.1 148
23/02/2021 18:40 8.1 87 0.0 0 0.0 5.1 18.5 140
23/02/2021 18:50 8.0 86 0.0 0 0.0 4.0 14.4 141
23/02/2021 19:00 8.0 87 0.0 0 0.0 4.8 17.4 142
23/02/2021 19:10 7.9 87 0.0 0 0.0 5.7 20.7 144
23/02/2021 19:20 7.9 88 0.0 0 0.0 5.4 19.5 146
23/02/2021 19:30 7.8 88 0.0 0 0.0 4.8 17.2 149
23/02/2021 19:40 7.7 89 0.0 0 0.0 4.5 16.1 150
23/02/2021 19:50 7.6 90 0.0 0 0.0 3.9 14.1 150
23/02/2021 20:00 7.6 90 0.0 0 0.0 3.8 13.8 146
23/02/2021 20:10 7.5 90 0.0 0 0.0 4.0 14.4 145
23/02/2021 20:20 7.5 89 0.0 0 0.0 4.2 15.1 146
23/02/2021 20:30 7.4 89 0.0 0 0.0 4.3 15.5 146
23/02/2021 20:40 7.4 89 0.0 0 0.0 4.7 16.7 143
23/02/2021 20:50 7.3 89 0.0 0 0.0 5.3 18.9 140
23/02/2021 21:00 7.2 89 0.0 0 0.0 4.4 15.7 142
23/02/2021 21:10 7.2 88 0.0 0 0.0 4.7 16.7 142
23/02/2021 21:20 7.2 88 0.0 0 0.0 4.4 16.0 134
23/02/2021 21:30 7.1 89 0.0 0 0.0 4.7 17.0 133
23/02/2021 21:40 7.0 90 0.0 0 0.0 4.1 14.6 131
23/02/2021 21:50 7.0 90 0.0 0 0.0 4.8 17.2 124
23/02/2021 22:00 6.8 91 0.0 0 0.0 4.5 16.2 121
23/02/2021 22:10 6.9 91 0.0 0 0.0 4.3 15.6 120
23/02/2021 22:20 6.9 91 0.0 0 0.0 4.5 16.1 125
23/02/2021 22:30 6.9 91 0.0 0 0.0 4.7 17.1 122
23/02/2021 22:40 7.0 91 0.0 0 0.0 4.6 16.6 134
23/02/2021 22:50 6.9 92 0.0 0 0.0 4.8 17.3 125
23/02/2021 23:00 6.8 92 0.0 0 0.0 4.6 16.7 124
23/02/2021 23:10 6.8 92 0.0 0 0.0 4.6 16.6 131
23/02/2021 23:20 6.8 93 0.0 0 0.0 4.1 14.7 136
23/02/2021 23:30 6.6 93 0.0 0 0.0 3.8 13.5 128
23/02/2021 23:40 6.6 94 0.0 0 0.0 3.6 13.0 127
23/02/2021 23:50 6.5 94 0.0 0 0.0 4.0 14.2 132
Anterior Página 1 de 1 Siguiente

NOTA: Tipo de datos según el color:
   - Valores diarios o 10 minutos correctos
   - Valores diarios calculados a partir de un número de datos 10 minutos menor que 144 y mayor que 120, o de un número de datos semihorarios menor que 48 y mayor que 40 (caso de las estaciones de INTIA Y Ministerio)
   - Valores diez minutos estimados


Contacto        Enlaces        Aviso legal